sensor_id;sensor_type;location;lat;lon;timestamp;P1;durP1;ratioP1;P2;durP2;ratioP2
28373;SDS011;15616;40.148;-102.718;2023-02-28T00:00:39;5.78;;;1.70;;
28373;SDS011;15616;40.148;-102.718;2023-02-28T00:03:05;4.95;;;1.40;;
28373;SDS011;15616;40.148;-102.718;2023-02-28T00:05:31;4.13;;;1.00;;
28373;SDS011;15616;40.148;-102.718;2023-02-28T00:07:57;4.63;;;1.40;;
28373;SDS011;15616;40.148;-102.718;2023-02-28T00:10:25;6.00;;;1.58;;
28373;SDS011;15616;40.148;-102.718;2023-02-28T00:12:53;4.90;;;1.40;;
28373;SDS011;15616;40.148;-102.718;2023-02-28T00:15:22;4.00;;;1.40;;
28373;SDS011;15616;40.148;-102.718;2023-02-28T00:17:48;3.42;;;1.17;;
28373;SDS011;15616;40.148;-102.718;2023-02-28T00:20:15;6.38;;;1.48;;
28373;SDS011;15616;40.148;-102.718;2023-02-28T00:22:43;6.70;;;1.40;;
28373;SDS011;15616;40.148;-102.718;2023-02-28T00:25:11;6.20;;;1.52;;
28373;SDS011;15616;40.148;-102.718;2023-02-28T00:27:39;2.88;;;1.20;;
28373;SDS011;15616;40.148;-102.718;2023-02-28T00:30:06;6.75;;;1.90;;
28373;SDS011;15616;40.148;-102.718;2023-02-28T00:32:36;5.10;;;1.70;;
28373;SDS011;15616;40.148;-102.718;2023-02-28T00:35:02;5.13;;;1.63;;
28373;SDS011;15616;40.148;-102.718;2023-02-28T00:37:28;5.28;;;1.35;;
28373;SDS011;15616;40.148;-102.718;2023-02-28T00:39:54;5.68;;;1.65;;
28373;SDS011;15616;40.148;-102.718;2023-02-28T00:42:20;3.88;;;1.27;;
28373;SDS011;15616;40.148;-102.718;2023-02-28T00:44:46;1.92;;;1.33;;
28373;SDS011;15616;40.148;-102.718;2023-02-28T00:47:11;4.47;;;1.60;;
28373;SDS011;15616;40.148;-102.718;2023-02-28T00:49:37;3.80;;;1.38;;
28373;SDS011;15616;40.148;-102.718;2023-02-28T00:52:03;5.72;;;1.52;;
28373;SDS011;15616;40.148;-102.718;2023-02-28T00:54:29;4.35;;;1.20;;
28373;SDS011;15616;40.148;-102.718;2023-02-28T00:56:55;5.45;;;1.55;;
28373;SDS011;15616;40.148;-102.718;2023-02-28T00:59:21;4.72;;;1.50;;
28373;SDS011;15616;40.148;-102.718;2023-02-28T01:01:47;6.95;;;1.73;;
28373;SDS011;15616;40.148;-102.718;2023-02-28T01:04:13;5.80;;;1.33;;
28373;SDS011;15616;40.148;-102.718;2023-02-28T01:06:39;5.60;;;1.60;;
28373;SDS011;15616;40.148;-102.718;2023-02-28T01:09:06;4.22;;;1.30;;
28373;SDS011;15616;40.148;-102.718;2023-02-28T01:11:33;2.60;;;1.20;;
28373;SDS011;15616;40.148;-102.718;2023-02-28T01:13:59;4.20;;;1.55;;
28373;SDS011;15616;40.148;-102.718;2023-02-28T01:16:25;8.13;;;1.77;;
28373;SDS011;15616;40.148;-102.718;2023-02-28T01:18:52;4.80;;;1.30;;
28373;SDS011;15616;40.148;-102.718;2023-02-28T01:21:18;3.38;;;1.20;;
28373;SDS011;15616;40.148;-102.718;2023-02-28T01:23:45;6.45;;;1.65;;
28373;SDS011;15616;40.148;-102.718;2023-02-28T01:26:16;4.15;;;1.42;;
28373;SDS011;15616;40.148;-102.718;2023-02-28T01:28:44;6.78;;;1.40;;
28373;SDS011;15616;40.148;-102.718;2023-02-28T01:31:10;4.13;;;1.35;;
28373;SDS011;15616;40.148;-102.718;2023-02-28T01:33:37;5.05;;;1.60;;
28373;SDS011;15616;40.148;-102.718;2023-02-28T01:36:09;5.57;;;1.50;;
28373;SDS011;15616;40.148;-102.718;2023-02-28T01:38:46;3.47;;;1.67;;
28373;SDS011;15616;40.148;-102.718;2023-02-28T01:41:15;3.85;;;1.20;;
28373;SDS011;15616;40.148;-102.718;2023-02-28T01:46:10;4.00;;;1.52;;
28373;SDS011;15616;40.148;-102.718;2023-02-28T01:48:38;4.53;;;1.50;;
28373;SDS011;15616;40.148;-102.718;2023-02-28T01:51:10;4.05;;;1.50;;
28373;SDS011;15616;40.148;-102.718;2023-02-28T01:53:51;4.90;;;1.50;;
28373;SDS011;15616;40.148;-102.718;2023-02-28T01:56:23;3.88;;;1.30;;
28373;SDS011;15616;40.148;-102.718;2023-02-28T01:58:53;3.65;;;1.23;;
28373;SDS011;15616;40.148;-102.718;2023-02-28T02:01:20;5.00;;;1.48;;
28373;SDS011;15616;40.148;-102.718;2023-02-28T02:03:48;2.50;;;1.10;;
28373;SDS011;15616;40.148;-102.718;2023-02-28T02:06:24;5.10;;;1.30;;
28373;SDS011;15616;40.148;-102.718;2023-02-28T02:08:54;3.40;;;1.30;;
28373;SDS011;15616;40.148;-102.718;2023-02-28T02:11:20;3.75;;;1.20;;
28373;SDS011;15616;40.148;-102.718;2023-02-28T02:33:28;4.15;;;1.20;;
28373;SDS011;15616;40.148;-102.718;2023-02-28T02:44:07;3.30;;;1.20;;
28373;SDS011;15616;40.148;-102.718;2023-02-28T02:46:41;5.28;;;1.35;;
28373;SDS011;15616;40.148;-102.718;2023-02-28T02:49:09;4.50;;;1.23;;
28373;SDS011;15616;40.148;-102.718;2023-02-28T02:51:44;4.25;;;1.50;;
28373;SDS011;15616;40.148;-102.718;2023-02-28T02:54:14;4.80;;;1.40;;
28373;SDS011;15616;40.148;-102.718;2023-02-28T02:56:54;5.18;;;1.23;;
28373;SDS011;15616;40.148;-102.718;2023-02-28T02:59:24;4.20;;;1.60;;
28373;SDS011;15616;40.148;-102.718;2023-02-28T03:01:53;5.30;;;1.77;;
28373;SDS011;15616;40.148;-102.718;2023-02-28T03:04:23;3.70;;;1.20;;
28373;SDS011;15616;40.148;-102.718;2023-02-28T03:06:51;3.30;;;1.10;;
28373;SDS011;15616;40.148;-102.718;2023-02-28T03:09:21;4.57;;;1.30;;
28373;SDS011;15616;40.148;-102.718;2023-02-28T03:11:47;3.97;;;1.25;;
28373;SDS011;15616;40.148;-102.718;2023-02-28T03:14:20;5.72;;;1.48;;
28373;SDS011;15616;40.148;-102.718;2023-02-28T03:17:07;3.17;;;1.20;;
28373;SDS011;15616;40.148;-102.718;2023-02-28T03:25:32;6.63;;;1.48;;
28373;SDS011;15616;40.148;-102.718;2023-02-28T03:28:09;3.78;;;1.20;;
28373;SDS011;15616;40.148;-102.718;2023-02-28T03:33:16;3.90;;;1.20;;
28373;SDS011;15616;40.148;-102.718;2023-02-28T03:35:48;4.22;;;1.27;;
28373;SDS011;15616;40.148;-102.718;2023-02-28T03:38:24;3.40;;;1.30;;
28373;SDS011;15616;40.148;-102.718;2023-02-28T03:41:06;3.47;;;1.20;;
28373;SDS011;15616;40.148;-102.718;2023-02-28T03:43:40;3.72;;;1.20;;
28373;SDS011;15616;40.148;-102.718;2023-02-28T03:46:12;5.47;;;1.42;;
28373;SDS011;15616;40.148;-102.718;2023-02-28T03:48:51;3.20;;;1.13;;
28373;SDS011;15616;40.148;-102.718;2023-02-28T03:51:27;5.82;;;1.40;;
28373;SDS011;15616;40.148;-102.718;2023-02-28T03:53:56;3.08;;;1.33;;
28373;SDS011;15616;40.148;-102.718;2023-02-28T03:56:37;4.32;;;1.15;;
28373;SDS011;15616;40.148;-102.718;2023-02-28T03:59:10;3.78;;;1.33;;
28373;SDS011;15616;40.148;-102.718;2023-02-28T04:01:42;3.55;;;1.48;;
28373;SDS011;15616;40.148;-102.718;2023-02-28T04:04:11;2.90;;;1.10;;
28373;SDS011;15616;40.148;-102.718;2023-02-28T04:06:38;4.43;;;1.40;;
28373;SDS011;15616;40.148;-102.718;2023-02-28T04:09:04;3.60;;;1.10;;
28373;SDS011;15616;40.148;-102.718;2023-02-28T04:14:09;3.03;;;1.33;;
28373;SDS011;15616;40.148;-102.718;2023-02-28T04:16:38;2.58;;;1.20;;
28373;SDS011;15616;40.148;-102.718;2023-02-28T04:19:06;3.15;;;1.10;;
28373;SDS011;15616;40.148;-102.718;2023-02-28T04:21:34;4.03;;;1.30;;
28373;SDS011;15616;40.148;-102.718;2023-02-28T04:24:05;3.30;;;1.20;;
28373;SDS011;15616;40.148;-102.718;2023-02-28T04:26:33;1.73;;;1.10;;
28373;SDS011;15616;40.148;-102.718;2023-02-28T04:29:01;3.42;;;1.33;;
28373;SDS011;15616;40.148;-102.718;2023-02-28T04:31:28;4.60;;;1.40;;
28373;SDS011;15616;40.148;-102.718;2023-02-28T04:33:54;2.92;;;1.10;;
28373;SDS011;15616;40.148;-102.718;2023-02-28T04:36:20;3.53;;;1.25;;
28373;SDS011;15616;40.148;-102.718;2023-02-28T04:38:48;4.28;;;1.25;;
28373;SDS011;15616;40.148;-102.718;2023-02-28T04:41:14;4.00;;;1.30;;
28373;SDS011;15616;40.148;-102.718;2023-02-28T04:43:41;3.10;;;1.05;;
28373;SDS011;15616;40.148;-102.718;2023-02-28T04:46:07;3.03;;;1.35;;
28373;SDS011;15616;40.148;-102.718;2023-02-28T04:48:34;3.55;;;1.20;;
28373;SDS011;15616;40.148;-102.718;2023-02-28T04:51:03;3.42;;;1.27;;
28373;SDS011;15616;40.148;-102.718;2023-02-28T04:53:30;3.75;;;1.20;;
28373;SDS011;15616;40.148;-102.718;2023-02-28T04:55:57;3.17;;;1.10;;
28373;SDS011;15616;40.148;-102.718;2023-02-28T04:58:23;3.35;;;1.42;;
28373;SDS011;15616;40.148;-102.718;2023-02-28T05:00:53;4.40;;;1.20;;
28373;SDS011;15616;40.148;-102.718;2023-02-28T05:03:20;5.13;;;1.33;;
28373;SDS011;15616;40.148;-102.718;2023-02-28T05:05:47;3.50;;;1.10;;
28373;SDS011;15616;40.148;-102.718;2023-02-28T05:08:13;3.28;;;1.30;;
28373;SDS011;15616;40.148;-102.718;2023-02-28T05:10:39;2.75;;;1.20;;
28373;SDS011;15616;40.148;-102.718;2023-02-28T05:13:05;2.75;;;1.23;;
28373;SDS011;15616;40.148;-102.718;2023-02-28T05:15:31;2.95;;;1.30;;
28373;SDS011;15616;40.148;-102.718;2023-02-28T05:17:57;2.92;;;1.20;;
28373;SDS011;15616;40.148;-102.718;2023-02-28T05:20:23;4.25;;;1.20;;
28373;SDS011;15616;40.148;-102.718;2023-02-28T05:22:49;3.85;;;1.15;;
28373;SDS011;15616;40.148;-102.718;2023-02-28T05:25:16;3.42;;;1.20;;
28373;SDS011;15616;40.148;-102.718;2023-02-28T05:27:44;4.15;;;1.50;;
28373;SDS011;15616;40.148;-102.718;2023-02-28T05:30:11;3.67;;;1.27;;
28373;SDS011;15616;40.148;-102.718;2023-02-28T05:32:40;2.95;;;0.98;;
28373;SDS011;15616;40.148;-102.718;2023-02-28T05:35:09;3.85;;;1.17;;
28373;SDS011;15616;40.148;-102.718;2023-02-28T05:37:36;4.38;;;1.20;;
28373;SDS011;15616;40.148;-102.718;2023-02-28T05:40:03;3.95;;;1.13;;
28373;SDS011;15616;40.148;-102.718;2023-02-28T05:42:32;3.33;;;1.23;;
28373;SDS011;15616;40.148;-102.718;2023-02-28T05:44:57;2.80;;;1.17;;
28373;SDS011;15616;40.148;-102.718;2023-02-28T05:47:24;3.30;;;1.17;;
28373;SDS011;15616;40.148;-102.718;2023-02-28T05:49:50;4.43;;;1.42;;
28373;SDS011;15616;40.148;-102.718;2023-02-28T05:52:16;3.10;;;1.25;;
28373;SDS011;15616;40.148;-102.718;2023-02-28T05:54:42;3.03;;;1.05;;
28373;SDS011;15616;40.148;-102.718;2023-02-28T05:57:08;3.13;;;1.20;;
28373;SDS011;15616;40.148;-102.718;2023-02-28T05:59:34;2.17;;;1.17;;
28373;SDS011;15616;40.148;-102.718;2023-02-28T06:02:04;3.10;;;1.08;;
28373;SDS011;15616;40.148;-102.718;2023-02-28T06:04:40;2.88;;;1.00;;
28373;SDS011;15616;40.148;-102.718;2023-02-28T06:07:07;2.38;;;1.10;;
28373;SDS011;15616;40.148;-102.718;2023-02-28T06:09:34;3.65;;;1.33;;
28373;SDS011;15616;40.148;-102.718;2023-02-28T06:12:01;2.67;;;1.20;;
28373;SDS011;15616;40.148;-102.718;2023-02-28T06:14:35;3.63;;;1.35;;
28373;SDS011;15616;40.148;-102.718;2023-02-28T06:17:01;5.05;;;1.13;;
28373;SDS011;15616;40.148;-102.718;2023-02-28T06:19:28;5.25;;;1.13;;
28373;SDS011;15616;40.148;-102.718;2023-02-28T06:21:55;1.85;;;1.00;;
28373;SDS011;15616;40.148;-102.718;2023-02-28T06:24:23;7.00;;;1.40;;
28373;SDS011;15616;40.148;-102.718;2023-02-28T06:26:50;3.75;;;1.20;;
28373;SDS011;15616;40.148;-102.718;2023-02-28T06:29:16;5.45;;;1.45;;
28373;SDS011;15616;40.148;-102.718;2023-02-28T06:31:44;4.75;;;1.27;;
28373;SDS011;15616;40.148;-102.718;2023-02-28T06:34:11;6.65;;;1.50;;
28373;SDS011;15616;40.148;-102.718;2023-02-28T06:36:41;5.43;;;1.30;;
28373;SDS011;15616;40.148;-102.718;2023-02-28T06:39:07;5.53;;;1.35;;
28373;SDS011;15616;40.148;-102.718;2023-02-28T06:41:33;5.65;;;1.40;;
28373;SDS011;15616;40.148;-102.718;2023-02-28T06:44:21;4.60;;;1.45;;
28373;SDS011;15616;40.148;-102.718;2023-02-28T06:46:48;6.60;;;1.48;;
28373;SDS011;15616;40.148;-102.718;2023-02-28T06:49:14;4.55;;;1.13;;
28373;SDS011;15616;40.148;-102.718;2023-02-28T06:51:41;17.52;;;1.85;;
28373;SDS011;15616;40.148;-102.718;2023-02-28T06:54:11;10.73;;;1.40;;
28373;SDS011;15616;40.148;-102.718;2023-02-28T06:56:38;12.95;;;1.52;;
28373;SDS011;15616;40.148;-102.718;2023-02-28T06:59:04;9.02;;;1.42;;
28373;SDS011;15616;40.148;-102.718;2023-02-28T07:01:31;18.73;;;1.73;;
28373;SDS011;15616;40.148;-102.718;2023-02-28T07:03:58;8.88;;;1.27;;
28373;SDS011;15616;40.148;-102.718;2023-02-28T07:06:25;20.13;;;1.92;;
28373;SDS011;15616;40.148;-102.718;2023-02-28T07:08:52;11.15;;;1.90;;
28373;SDS011;15616;40.148;-102.718;2023-02-28T07:11:19;5.13;;;1.40;;
28373;SDS011;15616;40.148;-102.718;2023-02-28T07:13:48;9.55;;;1.75;;
28373;SDS011;15616;40.148;-102.718;2023-02-28T07:16:15;4.65;;;1.30;;
28373;SDS011;15616;40.148;-102.718;2023-02-28T07:18:41;7.28;;;1.50;;
28373;SDS011;15616;40.148;-102.718;2023-02-28T07:21:09;22.00;;;2.22;;
28373;SDS011;15616;40.148;-102.718;2023-02-28T07:23:35;13.77;;;2.03;;
28373;SDS011;15616;40.148;-102.718;2023-02-28T07:26:03;10.23;;;1.58;;
28373;SDS011;15616;40.148;-102.718;2023-02-28T07:28:36;12.57;;;1.88;;
28373;SDS011;15616;40.148;-102.718;2023-02-28T07:31:06;9.65;;;1.77;;
28373;SDS011;15616;40.148;-102.718;2023-02-28T07:33:32;15.13;;;1.70;;
28373;SDS011;15616;40.148;-102.718;2023-02-28T07:36:09;15.82;;;2.30;;
28373;SDS011;15616;40.148;-102.718;2023-02-28T07:38:43;22.48;;;3.13;;
28373;SDS011;15616;40.148;-102.718;2023-02-28T07:41:14;9.98;;;1.80;;
28373;SDS011;15616;40.148;-102.718;2023-02-28T07:43:41;17.05;;;2.28;;
28373;SDS011;15616;40.148;-102.718;2023-02-28T07:46:08;9.82;;;1.98;;
28373;SDS011;15616;40.148;-102.718;2023-02-28T07:48:36;14.90;;;1.80;;
28373;SDS011;15616;40.148;-102.718;2023-02-28T07:51:03;14.90;;;2.13;;
28373;SDS011;15616;40.148;-102.718;2023-02-28T07:53:29;27.85;;;2.70;;
28373;SDS011;15616;40.148;-102.718;2023-02-28T07:55:55;11.13;;;1.90;;
28373;SDS011;15616;40.148;-102.718;2023-02-28T07:58:22;14.13;;;2.58;;
28373;SDS011;15616;40.148;-102.718;2023-02-28T08:00:50;21.63;;;2.25;;
28373;SDS011;15616;40.148;-102.718;2023-02-28T08:03:17;25.73;;;2.97;;
28373;SDS011;15616;40.148;-102.718;2023-02-28T08:05:44;17.25;;;2.30;;
28373;SDS011;15616;40.148;-102.718;2023-02-28T08:08:10;16.63;;;2.15;;
28373;SDS011;15616;40.148;-102.718;2023-02-28T08:10:36;4.53;;;1.42;;
28373;SDS011;15616;40.148;-102.718;2023-02-28T08:13:02;16.90;;;2.20;;
28373;SDS011;15616;40.148;-102.718;2023-02-28T08:15:28;13.23;;;2.05;;
28373;SDS011;15616;40.148;-102.718;2023-02-28T08:17:54;9.13;;;1.70;;
28373;SDS011;15616;40.148;-102.718;2023-02-28T08:20:21;14.45;;;2.00;;
28373;SDS011;15616;40.148;-102.718;2023-02-28T08:22:48;7.85;;;1.60;;
28373;SDS011;15616;40.148;-102.718;2023-02-28T08:25:14;11.82;;;1.60;;
28373;SDS011;15616;40.148;-102.718;2023-02-28T08:27:40;10.10;;;1.80;;
28373;SDS011;15616;40.148;-102.718;2023-02-28T08:30:06;18.05;;;1.70;;
28373;SDS011;15616;40.148;-102.718;2023-02-28T08:32:33;15.10;;;1.58;;
28373;SDS011;15616;40.148;-102.718;2023-02-28T08:34:59;11.90;;;1.65;;
28373;SDS011;15616;40.148;-102.718;2023-02-28T08:37:25;15.50;;;2.03;;
28373;SDS011;15616;40.148;-102.718;2023-02-28T08:39:51;12.27;;;2.00;;
28373;SDS011;15616;40.148;-102.718;2023-02-28T08:42:17;21.27;;;1.90;;
28373;SDS011;15616;40.148;-102.718;2023-02-28T08:44:43;24.40;;;2.00;;
28373;SDS011;15616;40.148;-102.718;2023-02-28T08:47:09;11.23;;;1.83;;
28373;SDS011;15616;40.148;-102.718;2023-02-28T08:49:34;18.10;;;1.92;;
28373;SDS011;15616;40.148;-102.718;2023-02-28T08:52:02;12.90;;;1.95;;
28373;SDS011;15616;40.148;-102.718;2023-02-28T08:54:28;10.27;;;1.77;;
28373;SDS011;15616;40.148;-102.718;2023-02-28T08:56:56;16.92;;;2.25;;
28373;SDS011;15616;40.148;-102.718;2023-02-28T08:59:22;21.10;;;2.60;;
28373;SDS011;15616;40.148;-102.718;2023-02-28T09:01:48;27.67;;;2.55;;
28373;SDS011;15616;40.148;-102.718;2023-02-28T09:04:14;27.77;;;3.20;;
28373;SDS011;15616;40.148;-102.718;2023-02-28T09:06:40;21.23;;;2.17;;
28373;SDS011;15616;40.148;-102.718;2023-02-28T09:09:06;21.42;;;2.10;;
28373;SDS011;15616;40.148;-102.718;2023-02-28T09:11:33;25.48;;;3.17;;
28373;SDS011;15616;40.148;-102.718;2023-02-28T09:14:00;19.05;;;2.05;;
28373;SDS011;15616;40.148;-102.718;2023-02-28T09:16:28;28.83;;;3.03;;
28373;SDS011;15616;40.148;-102.718;2023-02-28T09:18:56;28.60;;;3.10;;
28373;SDS011;15616;40.148;-102.718;2023-02-28T09:21:22;20.30;;;1.90;;
28373;SDS011;15616;40.148;-102.718;2023-02-28T09:23:49;20.38;;;2.40;;
28373;SDS011;15616;40.148;-102.718;2023-02-28T09:26:20;23.48;;;2.58;;
28373;SDS011;15616;40.148;-102.718;2023-02-28T09:28:48;24.52;;;2.75;;
28373;SDS011;15616;40.148;-102.718;2023-02-28T09:31:16;32.70;;;3.05;;
28373;SDS011;15616;40.148;-102.718;2023-02-28T09:33:46;21.10;;;2.97;;
28373;SDS011;15616;40.148;-102.718;2023-02-28T09:36:12;17.55;;;2.53;;
28373;SDS011;15616;40.148;-102.718;2023-02-28T09:38:38;26.23;;;2.88;;
28373;SDS011;15616;40.148;-102.718;2023-02-28T09:41:11;37.38;;;2.95;;
28373;SDS011;15616;40.148;-102.718;2023-02-28T09:43:45;34.13;;;2.60;;
28373;SDS011;15616;40.148;-102.718;2023-02-28T09:49:04;27.45;;;2.53;;
28373;SDS011;15616;40.148;-102.718;2023-02-28T09:51:34;31.42;;;2.72;;
28373;SDS011;15616;40.148;-102.718;2023-02-28T09:54:13;24.10;;;2.60;;
28373;SDS011;15616;40.148;-102.718;2023-02-28T09:56:44;21.55;;;2.40;;
28373;SDS011;15616;40.148;-102.718;2023-02-28T10:02:13;21.42;;;2.45;;
28373;SDS011;15616;40.148;-102.718;2023-02-28T10:05:05;16.85;;;2.40;;
28373;SDS011;15616;40.148;-102.718;2023-02-28T10:07:51;29.05;;;2.55;;
28373;SDS011;15616;40.148;-102.718;2023-02-28T10:10:29;17.42;;;1.95;;
28373;SDS011;15616;40.148;-102.718;2023-02-28T10:13:21;16.40;;;2.38;;
28373;SDS011;15616;40.148;-102.718;2023-02-28T10:15:58;13.48;;;1.90;;
28373;SDS011;15616;40.148;-102.718;2023-02-28T10:18:36;20.98;;;2.53;;
28373;SDS011;15616;40.148;-102.718;2023-02-28T10:21:38;19.58;;;2.13;;
28373;SDS011;15616;40.148;-102.718;2023-02-28T10:24:38;16.83;;;2.15;;
28373;SDS011;15616;40.148;-102.718;2023-02-28T10:29:45;20.73;;;1.92;;
28373;SDS011;15616;40.148;-102.718;2023-02-28T10:32:17;16.42;;;1.80;;
28373;SDS011;15616;40.148;-102.718;2023-02-28T10:34:50;13.23;;;2.35;;
28373;SDS011;15616;40.148;-102.718;2023-02-28T10:37:19;19.77;;;2.42;;
28373;SDS011;15616;40.148;-102.718;2023-02-28T10:39:46;25.42;;;2.30;;
28373;SDS011;15616;40.148;-102.718;2023-02-28T10:42:25;39.63;;;2.33;;
28373;SDS011;15616;40.148;-102.718;2023-02-28T10:45:13;15.38;;;2.20;;
28373;SDS011;15616;40.148;-102.718;2023-02-28T10:47:54;16.15;;;2.42;;
28373;SDS011;15616;40.148;-102.718;2023-02-28T10:53:13;17.98;;;2.60;;
28373;SDS011;15616;40.148;-102.718;2023-02-28T10:56:00;12.65;;;2.20;;
28373;SDS011;15616;40.148;-102.718;2023-02-28T10:58:46;17.73;;;2.13;;
28373;SDS011;15616;40.148;-102.718;2023-02-28T11:04:20;14.88;;;1.80;;
28373;SDS011;15616;40.148;-102.718;2023-02-28T11:07:19;14.80;;;2.15;;
28373;SDS011;15616;40.148;-102.718;2023-02-28T11:09:50;25.90;;;2.25;;
28373;SDS011;15616;40.148;-102.718;2023-02-28T11:15:03;26.20;;;2.42;;
28373;SDS011;15616;40.148;-102.718;2023-02-28T11:17:31;27.02;;;3.00;;
28373;SDS011;15616;40.148;-102.718;2023-02-28T11:19:59;25.35;;;2.67;;
28373;SDS011;15616;40.148;-102.718;2023-02-28T11:22:32;25.67;;;2.38;;
28373;SDS011;15616;40.148;-102.718;2023-02-28T11:25:06;15.88;;;2.50;;
28373;SDS011;15616;40.148;-102.718;2023-02-28T11:27:43;29.20;;;2.90;;
28373;SDS011;15616;40.148;-102.718;2023-02-28T11:30:28;12.68;;;1.90;;
28373;SDS011;15616;40.148;-102.718;2023-02-28T11:33:25;19.25;;;2.50;;
28373;SDS011;15616;40.148;-102.718;2023-02-28T11:35:57;21.27;;;2.70;;
28373;SDS011;15616;40.148;-102.718;2023-02-28T11:38:26;20.42;;;3.08;;
28373;SDS011;15616;40.148;-102.718;2023-02-28T11:46:25;38.58;;;3.03;;
28373;SDS011;15616;40.148;-102.718;2023-02-28T11:58:05;27.88;;;2.50;;
28373;SDS011;15616;40.148;-102.718;2023-02-28T12:05:50;34.10;;;3.80;;
28373;SDS011;15616;40.148;-102.718;2023-02-28T12:08:37;31.55;;;2.90;;
28373;SDS011;15616;40.148;-102.718;2023-02-28T12:14:25;20.75;;;2.63;;
28373;SDS011;15616;40.148;-102.718;2023-02-28T12:20:26;21.98;;;2.67;;
28373;SDS011;15616;40.148;-102.718;2023-02-28T12:25:00;32.50;;;2.92;;
28373;SDS011;15616;40.148;-102.718;2023-02-28T12:27:29;17.40;;;2.83;;
28373;SDS011;15616;40.148;-102.718;2023-02-28T12:29:58;26.70;;;3.13;;
28373;SDS011;15616;40.148;-102.718;2023-02-28T12:32:31;21.52;;;3.40;;
28373;SDS011;15616;40.148;-102.718;2023-02-28T12:35:04;30.25;;;2.95;;
28373;SDS011;15616;40.148;-102.718;2023-02-28T12:37:49;28.48;;;3.55;;
28373;SDS011;15616;40.148;-102.718;2023-02-28T12:40:22;35.10;;;3.92;;
28373;SDS011;15616;40.148;-102.718;2023-02-28T12:43:03;46.75;;;4.03;;
28373;SDS011;15616;40.148;-102.718;2023-02-28T12:48:42;35.88;;;3.97;;
28373;SDS011;15616;40.148;-102.718;2023-02-28T12:51:11;37.75;;;3.63;;
28373;SDS011;15616;40.148;-102.718;2023-02-28T12:54:03;31.30;;;3.33;;
28373;SDS011;15616;40.148;-102.718;2023-02-28T12:56:48;19.85;;;2.50;;
28373;SDS011;15616;40.148;-102.718;2023-02-28T12:59:33;23.38;;;3.10;;
28373;SDS011;15616;40.148;-102.718;2023-02-28T13:02:50;21.95;;;2.45;;
28373;SDS011;15616;40.148;-102.718;2023-02-28T13:05:32;30.20;;;3.35;;
28373;SDS011;15616;40.148;-102.718;2023-02-28T13:11:06;40.30;;;3.58;;
28373;SDS011;15616;40.148;-102.718;2023-02-28T13:13:32;17.42;;;2.38;;
28373;SDS011;15616;40.148;-102.718;2023-02-28T13:18:43;38.00;;;3.92;;
28373;SDS011;15616;40.148;-102.718;2023-02-28T13:31:27;33.47;;;3.33;;
28373;SDS011;15616;40.148;-102.718;2023-02-28T13:38:58;22.70;;;2.38;;
28373;SDS011;15616;40.148;-102.718;2023-02-28T13:44:03;36.05;;;3.15;;
28373;SDS011;15616;40.148;-102.718;2023-02-28T14:03:01;36.45;;;3.10;;
28373;SDS011;15616;40.148;-102.718;2023-02-28T14:05:39;32.65;;;3.67;;
28373;SDS011;15616;40.148;-102.718;2023-02-28T14:10:51;38.92;;;3.70;;
28373;SDS011;15616;40.148;-102.718;2023-02-28T14:13:36;34.28;;;3.95;;
28373;SDS011;15616;40.148;-102.718;2023-02-28T14:16:10;29.77;;;3.78;;
28373;SDS011;15616;40.148;-102.718;2023-02-28T14:18:42;25.05;;;3.25;;
28373;SDS011;15616;40.148;-102.718;2023-02-28T14:21:27;36.63;;;3.33;;
28373;SDS011;15616;40.148;-102.718;2023-02-28T14:27:07;26.55;;;3.20;;
28373;SDS011;15616;40.148;-102.718;2023-02-28T14:30:07;20.88;;;2.88;;
28373;SDS011;15616;40.148;-102.718;2023-02-28T14:32:51;33.05;;;3.50;;
28373;SDS011;15616;40.148;-102.718;2023-02-28T14:38:47;34.67;;;3.45;;
28373;SDS011;15616;40.148;-102.718;2023-02-28T14:43:58;23.42;;;3.67;;
28373;SDS011;15616;40.148;-102.718;2023-02-28T14:46:27;27.25;;;3.00;;
28373;SDS011;15616;40.148;-102.718;2023-02-28T14:49:00;28.15;;;3.38;;
28373;SDS011;15616;40.148;-102.718;2023-02-28T14:51:26;39.42;;;4.50;;
28373;SDS011;15616;40.148;-102.718;2023-02-28T14:53:56;37.25;;;4.15;;
28373;SDS011;15616;40.148;-102.718;2023-02-28T14:56:26;49.15;;;4.40;;
28373;SDS011;15616;40.148;-102.718;2023-02-28T14:59:03;40.38;;;4.22;;
28373;SDS011;15616;40.148;-102.718;2023-02-28T15:01:30;38.25;;;4.43;;
28373;SDS011;15616;40.148;-102.718;2023-02-28T15:03:59;49.85;;;3.75;;
28373;SDS011;15616;40.148;-102.718;2023-02-28T15:06:31;32.72;;;3.58;;
28373;SDS011;15616;40.148;-102.718;2023-02-28T15:11:54;39.80;;;3.50;;
28373;SDS011;15616;40.148;-102.718;2023-02-28T15:14:20;23.70;;;3.28;;
28373;SDS011;15616;40.148;-102.718;2023-02-28T15:16:49;27.48;;;3.17;;
28373;SDS011;15616;40.148;-102.718;2023-02-28T15:19:32;23.08;;;3.35;;
28373;SDS011;15616;40.148;-102.718;2023-02-28T15:22:05;24.40;;;2.70;;
28373;SDS011;15616;40.148;-102.718;2023-02-28T15:24:46;25.30;;;3.30;;
28373;SDS011;15616;40.148;-102.718;2023-02-28T15:27:24;23.45;;;3.30;;
28373;SDS011;15616;40.148;-102.718;2023-02-28T15:30:00;29.45;;;3.70;;
28373;SDS011;15616;40.148;-102.718;2023-02-28T15:32:35;26.88;;;3.00;;
28373;SDS011;15616;40.148;-102.718;2023-02-28T15:35:25;28.30;;;3.35;;
28373;SDS011;15616;40.148;-102.718;2023-02-28T15:37:55;30.00;;;3.58;;
28373;SDS011;15616;40.148;-102.718;2023-02-28T15:43:14;24.95;;;4.10;;
28373;SDS011;15616;40.148;-102.718;2023-02-28T15:45:45;40.63;;;4.07;;
28373;SDS011;15616;40.148;-102.718;2023-02-28T15:59:01;45.05;;;3.83;;
28373;SDS011;15616;40.148;-102.718;2023-02-28T16:01:32;32.25;;;4.50;;
28373;SDS011;15616;40.148;-102.718;2023-02-28T16:04:01;39.22;;;3.72;;
28373;SDS011;15616;40.148;-102.718;2023-02-28T16:09:03;30.73;;;3.45;;
28373;SDS011;15616;40.148;-102.718;2023-02-28T16:11:33;21.13;;;3.72;;
28373;SDS011;15616;40.148;-102.718;2023-02-28T16:14:01;29.08;;;3.22;;
28373;SDS011;15616;40.148;-102.718;2023-02-28T16:16:28;28.95;;;3.53;;
28373;SDS011;15616;40.148;-102.718;2023-02-28T16:18:56;24.73;;;3.22;;
28373;SDS011;15616;40.148;-102.718;2023-02-28T16:21:22;18.48;;;2.97;;
28373;SDS011;15616;40.148;-102.718;2023-02-28T16:23:49;23.55;;;3.00;;
28373;SDS011;15616;40.148;-102.718;2023-02-28T16:26:20;18.65;;;3.50;;
28373;SDS011;15616;40.148;-102.718;2023-02-28T16:28:49;23.35;;;2.67;;
28373;SDS011;15616;40.148;-102.718;2023-02-28T16:31:16;20.42;;;3.20;;
28373;SDS011;15616;40.148;-102.718;2023-02-28T16:33:43;19.95;;;3.03;;
28373;SDS011;15616;40.148;-102.718;2023-02-28T16:36:20;19.27;;;3.33;;
28373;SDS011;15616;40.148;-102.718;2023-02-28T16:38:50;26.42;;;3.20;;
28373;SDS011;15616;40.148;-102.718;2023-02-28T16:41:17;33.45;;;3.75;;
28373;SDS011;15616;40.148;-102.718;2023-02-28T16:43:46;22.67;;;2.53;;
28373;SDS011;15616;40.148;-102.718;2023-02-28T16:46:14;19.75;;;3.25;;
28373;SDS011;15616;40.148;-102.718;2023-02-28T16:48:42;26.02;;;3.20;;
28373;SDS011;15616;40.148;-102.718;2023-02-28T16:51:13;31.30;;;3.35;;
28373;SDS011;15616;40.148;-102.718;2023-02-28T16:53:43;31.77;;;3.10;;
28373;SDS011;15616;40.148;-102.718;2023-02-28T16:56:14;34.95;;;3.10;;
28373;SDS011;15616;40.148;-102.718;2023-02-28T16:58:43;22.05;;;3.22;;
28373;SDS011;15616;40.148;-102.718;2023-02-28T17:01:09;21.65;;;4.13;;